Time;durP1;ratioP1;P1;durP2;ratioP2;P2;SDS_P1;SDS_P2;PMS_P1;PMS_P2;Temp;Humidity;BMP_temperature;BMP_pressure;BME280_temperature;BME280_humidity;BME280_pressure;Samples;Min_cycle;Max_cycle;Signal;HPM_P1;HPM_P2
2021/08/02 00:02:00;;;;;;;20.97;14.10;;;18.20;99.90;;;;;;5094400;28;20234;-84
2021/08/02 00:04:32;;;;;;;22.50;13.67;;;18.20;99.90;;;;;;5079261;28;20178;-83
2021/08/02 00:07:11;;;;;;;19.70;12.80;;;18.20;99.90;;;;;;5094042;28;20206;-84
2021/08/02 00:09:40;;;;;;;21.80;13.10;;;18.20;99.90;;;;;;5104222;28;20186;-84
2021/08/02 00:12:09;;;;;;;24.83;15.30;;;18.20;99.90;;;;;;5077379;28;20197;-84
2021/08/02 00:14:36;;;;;;;25.50;14.10;;;18.20;99.90;;;;;;5093093;28;20599;-84
2021/08/02 00:17:05;;;;;;;20.87;13.47;;;18.20;99.90;;;;;;5073424;28;20285;-84
2021/08/02 00:19:31;;;;;;;27.47;14.20;;;18.20;99.90;;;;;;5092142;28;20798;-84
2021/08/02 00:21:57;;;;;;;20.37;13.77;;;18.20;99.90;;;;;;5076962;28;20188;-84
2021/08/02 00:24:24;;;;;;;25.77;15.40;;;18.30;99.90;;;;;;5078673;28;20182;-82
2021/08/02 00:26:53;;;;;;;30.83;17.77;;;18.30;99.90;;;;;;5072767;28;20207;-83
2021/08/02 00:29:21;;;;;;;24.27;15.70;;;18.40;99.90;;;;;;5074171;28;20215;-84
2021/08/02 00:31:47;;;;;;;25.33;16.73;;;18.40;99.90;;;;;;5093057;28;20191;-84
2021/08/02 00:34:13;;;;;;;29.43;17.07;;;18.40;99.90;;;;;;5093510;28;20277;-84
2021/08/02 00:36:56;;;;;;;24.67;16.93;;;18.40;99.90;;;;;;5082050;28;20175;-84
2021/08/02 00:39:47;;;;;;;26.93;16.40;;;18.30;99.90;;;;;;5076470;28;20207;-84
2021/08/02 00:42:43;;;;;;;25.07;16.20;;;18.20;99.90;;;;;;5074391;28;20273;-84
2021/08/02 00:45:12;;;;;;;26.03;16.53;;;18.20;99.90;;;;;;5076980;28;20179;-84
2021/08/02 00:47:56;;;;;;;26.80;17.47;;;18.20;99.90;;;;;;5075585;28;20238;-85
2021/08/02 00:50:24;;;;;;;27.50;16.80;;;18.20;99.90;;;;;;5098185;28;20666;-85
2021/08/02 00:53:11;;;;;;;24.27;16.20;;;18.20;99.90;;;;;;5085622;28;20243;-85
2021/08/02 00:55:42;;;;;;;24.17;16.00;;;18.20;99.90;;;;;;5086039;28;20282;-84
2021/08/02 00:58:11;;;;;;;28.67;16.20;;;18.20;99.90;;;;;;5119125;27;20199;-85
2021/08/02 01:00:39;;;;;;;25.77;15.63;;;18.20;99.90;;;;;;5083368;28;20175;-85
2021/08/02 01:03:08;;;;;;;22.03;14.50;;;18.10;99.90;;;;;;5086813;28;20193;-85
2021/08/02 01:05:35;;;;;;;22.47;13.57;;;18.10;99.90;;;;;;5082322;28;20639;-85
2021/08/02 01:08:23;;;;;;;22.00;13.03;;;18.00;99.90;;;;;;5079543;28;20209;-85
2021/08/02 01:10:54;;;;;;;24.33;13.37;;;18.00;99.90;;;;;;5088319;28;20191;-85
2021/08/02 01:13:23;;;;;;;24.20;13.93;;;18.00;99.90;;;;;;5090373;28;20988;-85
2021/08/02 01:15:51;;;;;;;21.50;12.77;;;17.90;99.90;;;;;;5076843;28;20545;-85
2021/08/02 01:18:22;;;;;;;23.17;13.93;;;17.90;99.90;;;;;;5091588;28;20200;-85
2021/08/02 01:20:54;;;;;;;23.33;13.83;;;17.90;99.90;;;;;;5073835;28;20190;-85
2021/08/02 01:23:23;;;;;;;20.40;13.43;;;17.90;99.90;;;;;;5078408;27;20174;-85
2021/08/02 01:25:56;;;;;;;21.93;13.87;;;17.90;99.90;;;;;;5090576;28;20179;-85
2021/08/02 01:28:25;;;;;;;19.60;12.27;;;17.80;99.90;;;;;;5078084;28;20182;-85
2021/08/02 01:30:57;;;;;;;22.67;13.37;;;17.80;99.90;;;;;;5091757;28;20190;-86
2021/08/02 01:33:32;;;;;;;20.27;12.67;;;17.90;99.90;;;;;;5077451;28;20201;-86
2021/08/02 01:36:09;;;;;;;19.37;12.07;;;17.80;99.90;;;;;;5077937;28;20176;-85
2021/08/02 01:38:41;;;;;;;20.20;12.77;;;17.70;99.90;;;;;;5074453;28;20747;-86
2021/08/02 01:41:12;;;;;;;19.50;13.23;;;17.60;99.90;;;;;;5079760;28;20166;-85
2021/08/02 01:43:40;;;;;;;18.60;13.07;;;17.60;99.90;;;;;;5092219;28;20201;-85
2021/08/02 01:46:22;;;;;;;23.67;15.65;;;17.50;99.90;;;;;;5071706;28;20452;-86
2021/08/02 01:49:06;;;;;;;23.60;14.60;;;17.50;99.90;;;;;;5095378;28;20173;-86
2021/08/02 01:51:43;;;;;;;23.35;17.52;;;17.50;99.90;;;;;;5090494;28;20515;-86
2021/08/02 01:54:37;;;;;;;25.07;15.00;;;17.20;99.90;;;;;;5070302;28;20213;-86
2021/08/02 01:57:07;;;;;;;22.90;14.10;;;17.20;99.90;;;;;;5090928;28;20193;-86
2021/08/02 02:00:01;;;;;;;20.70;14.60;;;17.20;99.90;;;;;;5076036;28;20174;-86
2021/08/02 02:02:53;;;;;;;20.03;12.17;;;17.20;99.90;;;;;;5091319;28;20189;-85
2021/08/02 02:05:27;;;;;;;22.87;13.30;;;17.30;99.90;;;;;;5079919;28;20292;-86
2021/08/02 02:08:14;;;;;;;19.80;13.70;;;17.30;99.90;;;;;;5087969;28;20209;-86
2021/08/02 02:10:52;;;;;;;19.13;12.53;;;17.30;99.90;;;;;;5088647;28;20182;-85
2021/08/02 02:13:28;;;;;;;18.33;12.50;;;17.40;99.90;;;;;;5077765;28;20635;-86
2021/08/02 02:15:57;;;;;;;17.07;11.63;;;17.40;99.90;;;;;;5092967;28;20188;-87
2021/08/02 02:18:26;;;;;;;20.03;11.07;;;17.40;99.90;;;;;;5085977;28;20230;-86
2021/08/02 02:20:53;;;;;;;19.93;11.27;;;17.40;99.90;;;;;;5094558;28;20258;-86
2021/08/02 02:23:22;;;;;;;16.97;10.83;;;17.40;99.90;;;;;;5074337;28;20198;-86
2021/08/02 02:25:49;;;;;;;18.07;11.87;;;17.40;99.90;;;;;;5071197;28;20183;-85
2021/08/02 02:28:20;;;;;;;18.90;11.73;;;17.30;99.90;;;;;;5077417;28;20181;-85
2021/08/02 02:30:51;;;;;;;19.50;11.83;;;17.30;99.90;;;;;;5077431;28;20204;-85
2021/08/02 02:33:18;;;;;;;18.20;11.17;;;17.30;99.90;;;;;;5090861;28;20210;-85
2021/08/02 02:35:46;;;;;;;18.70;12.43;;;17.30;99.90;;;;;;5076470;28;20186;-85
2021/08/02 02:38:15;;;;;;;22.20;12.43;;;17.30;99.90;;;;;;5107685;28;20234;-85
2021/08/02 02:40:44;;;;;;;19.90;11.87;;;17.40;99.90;;;;;;5111238;27;20518;-85
2021/08/02 02:43:12;;;;;;;22.10;12.07;;;17.40;99.90;;;;;;5096049;28;20197;-85
2021/08/02 02:45:40;;;;;;;21.07;12.50;;;17.40;99.90;;;;;;5078099;28;20171;-85
2021/08/02 02:48:07;;;;;;;19.20;11.90;;;17.40;99.90;;;;;;5083157;28;20240;-85
2021/08/02 02:50:35;;;;;;;18.37;11.17;;;17.50;99.90;;;;;;5095283;28;20182;-85
2021/08/02 02:53:04;;;;;;;18.90;10.50;;;17.50;99.90;;;;;;5092106;28;20296;-85
2021/08/02 02:55:32;;;;;;;18.07;11.43;;;17.50;99.90;;;;;;5078117;28;20179;-85
2021/08/02 02:57:59;;;;;;;21.07;11.10;;;17.60;99.90;;;;;;5078470;28;20164;-85
2021/08/02 03:00:27;;;;;;;16.67;10.57;;;17.60;99.90;;;;;;5093527;28;20193;-85
2021/08/02 03:02:57;;;;;;;23.37;11.23;;;17.60;99.90;;;;;;5081250;28;20190;-85
2021/08/02 03:05:26;;;;;;;23.80;10.90;;;17.60;99.90;;;;;;5112146;28;20193;-85
2021/08/02 03:07:57;;;;;;;17.50;11.37;;;17.70;99.90;;;;;;5091351;28;20205;-85
2021/08/02 03:10:26;;;;;;;17.30;10.83;;;17.70;99.90;;;;;;5099284;28;20170;-85
2021/08/02 03:12:55;;;;;;;19.50;11.50;;;17.70;99.90;;;;;;5090975;28;20189;-85
2021/08/02 03:15:21;;;;;;;18.77;10.83;;;17.70;99.90;;;;;;5093713;28;20177;-84
2021/08/02 03:17:47;;;;;;;17.13;10.37;;;17.80;99.90;;;;;;5082385;28;20188;-86
2021/08/02 03:20:15;;;;;;;20.83;10.80;;;17.80;99.90;;;;;;5092032;28;20221;-86
2021/08/02 03:23:02;;;;;;;17.13;11.13;;;17.80;99.90;;;;;;5100027;28;20171;-86
2021/08/02 03:26:11;;;;;;;18.87;11.57;;;17.80;99.90;;;;;;5089831;28;20235;-86
2021/08/02 03:29:02;;;;;;;21.03;11.30;;;17.80;99.90;;;;;;5088407;28;20274;-86
2021/08/02 03:31:34;;;;;;;17.27;10.83;;;17.80;99.90;;;;;;5078809;28;20274;-85
2021/08/02 03:34:04;;;;;;;20.40;11.43;;;17.90;99.90;;;;;;5089503;28;20209;-84
2021/08/02 03:36:30;;;;;;;21.17;11.60;;;18.00;99.90;;;;;;5107252;28;20187;-86
2021/08/02 03:38:57;;;;;;;19.83;11.53;;;18.00;99.90;;;;;;5107761;28;20183;-85
2021/08/02 03:41:24;;;;;;;23.50;11.47;;;18.00;99.90;;;;;;5112432;28;20166;-85
2021/08/02 03:43:50;;;;;;;21.20;11.93;;;18.00;99.90;;;;;;5089551;28;20182;-85
2021/08/02 03:46:17;;;;;;;19.97;11.20;;;18.00;99.90;;;;;;5098944;28;20178;-85
2021/08/02 03:48:44;;;;;;;19.63;11.63;;;18.00;99.90;;;;;;5078899;28;20265;-84
2021/08/02 03:51:10;;;;;;;21.20;12.17;;;18.00;99.90;;;;;;5110104;28;20189;-85
2021/08/02 03:53:43;;;;;;;20.50;11.67;;;18.00;99.90;;;;;;5081731;28;21273;-84
2021/08/02 03:56:12;;;;;;;18.70;10.97;;;18.10;99.90;;;;;;5091970;28;20185;-85
2021/08/02 03:58:38;;;;;;;22.70;11.40;;;18.10;99.90;;;;;;5093174;28;20271;-84
2021/08/02 04:01:04;;;;;;;20.80;11.30;;;17.80;99.90;;;;;;5074099;28;20613;-83
2021/08/02 04:03:30;;;;;;;17.90;11.20;;;17.60;99.90;;;;;;5076135;28;20178;-86
2021/08/02 04:05:57;;;;;;;18.50;11.87;;;17.50;99.90;;;;;;5092416;28;20190;-85
2021/08/02 04:08:25;;;;;;;17.80;10.93;;;17.60;99.90;;;;;;5094865;28;20598;-85
2021/08/02 04:10:50;;;;;;;22.10;12.00;;;17.70;99.90;;;;;;5076722;28;20187;-86
2021/08/02 04:13:17;;;;;;;22.13;13.43;;;17.80;99.90;;;;;;5074787;28;20256;-84
2021/08/02 04:15:44;;;;;;;19.53;12.17;;;17.80;99.90;;;;;;5091384;28;20187;-84
2021/08/02 04:18:09;;;;;;;25.37;13.10;;;17.90;99.90;;;;;;5078617;28;20243;-86
2021/08/02 04:20:35;;;;;;;20.83;12.40;;;17.80;99.90;;;;;;5094394;28;20177;-86
2021/08/02 04:23:01;;;;;;;22.30;13.40;;;17.70;99.90;;;;;;5076262;28;20179;-86
2021/08/02 04:25:27;;;;;;;20.07;12.90;;;17.60;99.90;;;;;;5091328;28;20190;-85
2021/08/02 04:27:54;;;;;;;25.90;13.03;;;17.50;99.90;;;;;;5093904;28;20183;-85
2021/08/02 04:30:20;;;;;;;20.13;11.53;;;17.60;99.90;;;;;;5078781;28;20194;-85
2021/08/02 04:32:47;;;;;;;24.60;12.80;;;17.60;99.90;;;;;;5075820;28;20188;-85
2021/08/02 04:35:13;;;;;;;20.47;12.70;;;17.50;99.90;;;;;;5077666;28;20181;-85
2021/08/02 04:37:39;;;;;;;23.70;12.87;;;17.50;99.90;;;;;;5076771;28;20541;-85
2021/08/02 04:40:06;;;;;;;25.20;13.77;;;17.60;99.90;;;;;;5075804;28;20657;-85
2021/08/02 04:42:38;;;;;;;28.10;14.03;;;17.70;99.90;;;;;;5078548;28;20224;-85
2021/08/02 04:45:05;;;;;;;22.03;11.67;;;17.70;99.90;;;;;;5079764;28;20235;-85
2021/08/02 04:47:32;;;;;;;17.97;11.07;;;17.70;99.90;;;;;;5092482;28;20175;-86
2021/08/02 04:49:57;;;;;;;17.90;10.60;;;17.60;99.90;;;;;;5106613;28;20190;-85
2021/08/02 04:52:23;;;;;;;20.87;10.67;;;17.50;99.90;;;;;;5089779;28;20183;-85
2021/08/02 04:54:49;;;;;;;15.43;7.73;;;17.50;99.90;;;;;;5112843;28;20671;-84
2021/08/02 04:57:14;;;;;;;16.37;8.47;;;17.50;99.90;;;;;;5074767;28;20212;-84
2021/08/02 04:59:42;;;;;;;17.67;8.07;;;17.30;99.90;;;;;;5085682;28;20178;-84
2021/08/02 05:02:08;;;;;;;14.43;7.73;;;17.30;99.90;;;;;;5093585;28;20730;-84
2021/08/02 05:04:34;;;;;;;18.03;8.23;;;17.20;99.90;;;;;;5071942;28;20660;-84
2021/08/02 05:07:00;;;;;;;16.27;7.90;;;17.20;99.90;;;;;;5077249;28;20216;-85
2021/08/02 05:09:26;;;;;;;14.03;7.67;;;17.20;99.90;;;;;;5090938;28;20179;-84
2021/08/02 05:11:52;;;;;;;15.70;8.10;;;17.10;99.90;;;;;;5070976;28;20216;-84
2021/08/02 05:14:18;;;;;;;12.37;6.77;;;17.00;99.90;;;;;;5077479;28;20587;-84
2021/08/02 05:16:44;;;;;;;16.07;7.93;;;17.00;99.90;;;;;;5072351;28;20280;-84
2021/08/02 05:19:13;;;;;;;18.13;7.37;;;17.00;99.90;;;;;;5093934;28;20236;-84
2021/08/02 05:21:39;;;;;;;13.37;7.20;;;17.10;99.90;;;;;;5091769;28;20268;-83
2021/08/02 05:24:05;;;;;;;15.47;6.33;;;17.10;99.90;;;;;;5074270;28;20194;-84
2021/08/02 05:26:31;;;;;;;16.60;6.87;;;17.20;99.90;;;;;;5077403;28;20187;-83
2021/08/02 05:28:57;;;;;;;15.13;6.27;;;17.20;99.90;;;;;;5072988;28;20258;-83
2021/08/02 05:31:23;;;;;;;15.03;6.50;;;17.30;99.90;;;;;;5079093;28;20669;-83
2021/08/02 05:33:50;;;;;;;12.83;6.47;;;17.30;99.90;;;;;;5073697;28;20196;-82
2021/08/02 05:36:15;;;;;;;11.63;6.17;;;17.20;99.90;;;;;;5074581;28;20174;-83
2021/08/02 05:38:42;;;;;;;13.07;6.63;;;17.30;99.90;;;;;;5076357;28;20205;-82
2021/08/02 05:41:08;;;;;;;13.10;6.10;;;17.30;99.90;;;;;;5060933;28;20191;-83
2021/08/02 05:43:34;;;;;;;15.17;6.63;;;17.30;99.90;;;;;;5069627;28;20187;-83
2021/08/02 05:46:00;;;;;;;17.63;7.50;;;17.40;99.90;;;;;;5063743;28;20187;-83
2021/08/02 05:48:26;;;;;;;15.93;7.03;;;17.30;99.90;;;;;;5068373;28;20264;-83
2021/08/02 05:50:51;;;;;;;17.57;7.70;;;17.30;99.90;;;;;;5071365;28;20203;-82
2021/08/02 05:53:17;;;;;;;16.40;7.43;;;17.20;99.90;;;;;;5091441;28;20209;-81
2021/08/02 05:55:43;;;;;;;17.83;7.40;;;17.10;99.90;;;;;;5096578;28;20573;-82
2021/08/02 05:58:10;;;;;;;16.47;8.20;;;16.90;99.90;;;;;;5089921;28;20200;-82
2021/08/02 06:00:36;;;;;;;15.67;7.43;;;16.90;99.90;;;;;;5091389;28;20235;-83
2021/08/02 06:03:02;;;;;;;17.37;7.60;;;16.80;99.90;;;;;;5075778;28;20685;-83
2021/08/02 06:05:27;;;;;;;20.03;7.47;;;16.70;99.90;;;;;;5075667;28;20260;-83
2021/08/02 06:07:53;;;;;;;15.90;7.43;;;16.60;99.90;;;;;;5095293;28;20215;-83
2021/08/02 06:10:19;;;;;;;15.37;7.87;;;16.60;99.90;;;;;;5075772;28;20202;-83
2021/08/02 06:12:44;;;;;;;19.87;8.03;;;16.70;99.90;;;;;;5093347;28;20194;-83
2021/08/02 06:15:11;;;;;;;16.50;7.40;;;16.70;99.90;;;;;;5078817;28;20185;-83
2021/08/02 06:17:37;;;;;;;16.13;8.70;;;16.60;99.90;;;;;;5073410;28;20267;-84
2021/08/02 06:20:04;;;;;;;18.77;9.67;;;16.60;99.90;;;;;;5074987;28;20311;-83
2021/08/02 06:22:30;;;;;;;18.27;10.00;;;16.60;99.90;;;;;;5073913;28;20594;-83
2021/08/02 06:24:56;;;;;;;19.77;10.67;;;16.70;99.90;;;;;;5088480;28;20286;-83
2021/08/02 06:27:22;;;;;;;20.13;10.43;;;16.70;99.90;;;;;;5093157;28;20602;-84
2021/08/02 06:29:48;;;;;;;19.47;10.90;;;16.50;99.90;;;;;;5095086;28;20186;-84
2021/08/02 06:32:13;;;;;;;20.60;11.20;;;16.30;99.90;;;;;;5076121;28;20613;-84
2021/08/02 06:34:39;;;;;;;19.57;11.63;;;16.20;99.90;;;;;;5068135;28;20202;-83
2021/08/02 06:37:05;;;;;;;19.63;10.53;;;16.10;99.90;;;;;;5085314;28;20187;-84
2021/08/02 06:39:30;;;;;;;20.13;10.67;;;16.10;99.90;;;;;;5088612;28;20176;-83
2021/08/02 06:41:56;;;;;;;20.57;10.00;;;15.90;99.90;;;;;;5087265;28;20191;-84
2021/08/02 06:44:22;;;;;;;20.63;10.33;;;15.90;99.90;;;;;;5088241;28;20182;-82
2021/08/02 06:46:48;;;;;;;18.50;10.27;;;15.90;99.90;;;;;;5080230;28;20274;-83
2021/08/02 06:49:13;;;;;;;21.33;11.07;;;15.90;99.90;;;;;;5087689;28;20183;-83
2021/08/02 06:51:39;;;;;;;18.97;10.33;;;16.10;99.90;;;;;;5074714;28;20549;-83
2021/08/02 06:54:05;;;;;;;19.33;10.50;;;15.90;99.90;;;;;;5086087;28;20211;-82
2021/08/02 06:56:30;;;;;;;19.27;10.20;;;15.90;99.90;;;;;;5086328;28;20184;-84
2021/08/02 06:58:56;;;;;;;20.70;10.83;;;15.90;99.90;;;;;;5093370;28;20283;-83
2021/08/02 07:01:22;;;;;;;17.27;9.73;;;15.90;99.90;;;;;;5074575;28;20175;-83
2021/08/02 07:03:48;;;;;;;17.50;9.67;;;16.00;99.90;;;;;;5075804;28;20184;-83
2021/08/02 07:06:13;;;;;;;14.67;6.83;;;15.90;99.90;;;;;;5089451;28;20597;-83
2021/08/02 07:08:39;;;;;;;11.00;5.83;;;16.00;99.90;;;;;;5069712;28;20207;-82
2021/08/02 07:11:06;;;;;;;15.33;6.30;;;15.90;99.90;;;;;;5074229;28;20240;-83
2021/08/02 07:13:33;;;;;;;16.30;6.80;;;15.80;99.90;;;;;;5073377;28;20199;-83
2021/08/02 07:16:00;;;;;;;14.30;6.87;;;15.80;99.90;;;;;;5072579;28;20194;-84
2021/08/02 07:18:35;;;;;;;15.17;6.33;;;15.80;99.90;;;;;;5084978;28;20211;-83
2021/08/02 07:21:01;;;;;;;15.03;6.83;;;15.80;99.90;;;;;;5069990;28;20236;-83
2021/08/02 07:23:27;;;;;;;14.27;6.60;;;15.90;99.90;;;;;;5085793;28;20659;-84
2021/08/02 07:25:53;;;;;;;14.27;6.53;;;15.90;99.90;;;;;;5079252;28;20223;-84
2021/08/02 07:28:19;;;;;;;14.90;6.40;;;15.80;99.90;;;;;;5087979;28;20191;-85
2021/08/02 07:30:45;;;;;;;15.03;6.50;;;15.70;99.90;;;;;;5091399;28;20235;-85
2021/08/02 07:33:11;;;;;;;16.47;6.53;;;15.70;99.90;;;;;;5083825;28;20303;-83
2021/08/02 07:35:37;;;;;;;17.37;7.10;;;15.80;99.90;;;;;;5074904;28;20673;-84
2021/08/02 07:38:03;;;;;;;16.47;6.67;;;15.80;99.90;;;;;;5075762;28;20257;-80
2021/08/02 07:40:28;;;;;;;11.43;5.50;;;15.70;99.90;;;;;;5077229;28;20167;-82
2021/08/02 07:42:54;;;;;;;18.17;6.50;;;15.70;99.90;;;;;;5077818;28;20171;-82
2021/08/02 07:45:20;;;;;;;13.83;6.27;;;15.70;99.90;;;;;;5088262;28;20552;-81
2021/08/02 07:47:46;;;;;;;12.23;6.13;;;15.70;99.90;;;;;;5073303;28;20191;-83
2021/08/02 07:50:12;;;;;;;12.83;6.00;;;15.40;99.90;;;;;;5071683;28;20178;-81
2021/08/02 07:52:38;;;;;;;14.87;7.00;;;15.50;99.90;;;;;;5078813;28;20243;-81
2021/08/02 07:55:05;;;;;;;13.47;7.43;;;15.60;99.90;;;;;;5091408;28;20730;-81
2021/08/02 07:57:32;;;;;;;12.80;7.13;;;15.80;99.90;;;;;;5106025;28;20259;-81
2021/08/02 08:00:04;;;;;;;12.97;7.20;;;15.90;99.90;;;;;;5090474;28;20176;-82
2021/08/02 08:02:35;;;;;;;15.03;7.67;;;16.10;99.90;;;;;;5093776;28;20190;-82
2021/08/02 08:05:01;;;;;;;14.13;7.53;;;16.10;99.90;;;;;;5087843;28;20232;-83
2021/08/02 08:07:26;;;;;;;16.03;7.50;;;16.00;99.90;;;;;;5076323;27;20569;-83
2021/08/02 08:09:52;;;;;;;11.17;6.70;;;16.10;99.90;;;;;;5093151;28;20654;-82
2021/08/02 08:12:18;;;;;;;13.97;7.43;;;16.00;99.90;;;;;;5065145;28;20186;-82
2021/08/02 08:14:44;;;;;;;15.30;6.97;;;15.90;99.90;;;;;;5091800;28;20216;-83
2021/08/02 08:17:09;;;;;;;13.80;6.73;;;16.00;99.90;;;;;;5074706;28;20184;-82
2021/08/02 08:19:35;;;;;;;12.50;6.80;;;16.10;99.90;;;;;;5089336;28;20223;-82
2021/08/02 08:22:01;;;;;;;12.50;6.87;;;16.10;99.90;;;;;;5076089;28;20589;-83
2021/08/02 08:24:26;;;;;;;12.07;6.57;;;16.10;99.90;;;;;;5089351;28;20185;-81
2021/08/02 08:26:52;;;;;;;13.37;6.83;;;16.10;99.90;;;;;;5093348;28;20177;-83
2021/08/02 08:29:18;;;;;;;11.20;5.90;;;16.20;99.90;;;;;;5070028;28;20562;-82
2021/08/02 08:31:44;;;;;;;10.33;5.07;;;16.00;99.90;;;;;;5081342;28;20332;-82
2021/08/02 08:34:11;;;;;;;10.70;5.20;;;15.90;99.90;;;;;;5089766;28;20247;-81
2021/08/02 08:36:37;;;;;;;11.47;4.90;;;16.00;99.90;;;;;;5074901;28;20236;-82
2021/08/02 08:39:04;;;;;;;12.00;6.10;;;16.10;99.90;;;;;;5089860;28;20173;-82
2021/08/02 08:41:30;;;;;;;13.87;6.83;;;16.10;99.90;;;;;;5092306;28;20342;-81
2021/08/02 08:43:55;;;;;;;11.37;6.17;;;16.30;99.90;;;;;;5074010;28;20264;-82
2021/08/02 08:46:23;;;;;;;10.97;5.93;;;16.30;99.90;;;;;;5078445;28;20187;-82
2021/08/02 08:48:49;;;;;;;16.77;7.20;;;16.50;99.90;;;;;;5076008;28;20196;-82
2021/08/02 08:51:15;;;;;;;13.27;6.53;;;16.50;99.90;;;;;;5091639;28;20187;-83
2021/08/02 08:53:45;;;;;;;12.37;6.73;;;16.60;99.90;;;;;;5090586;28;20348;-83
2021/08/02 08:56:15;;;;;;;12.30;6.20;;;16.80;99.90;;;;;;5073088;28;20176;-82
2021/08/02 08:58:42;;;;;;;15.57;6.53;;;16.80;99.90;;;;;;5090662;28;20177;-82
2021/08/02 09:01:07;;;;;;;13.47;6.93;;;16.90;99.90;;;;;;5090002;28;20196;-82
2021/08/02 09:03:33;;;;;;;12.63;5.77;;;17.00;99.90;;;;;;5074123;28;20261;-82
2021/08/02 09:06:03;;;;;;;11.13;4.63;;;17.00;99.90;;;;;;5074614;28;20186;-82
2021/08/02 09:08:29;;;;;;;9.60;4.60;;;17.10;99.90;;;;;;5086846;28;20260;-81
2021/08/02 09:11:00;;;;;;;9.27;4.00;;;17.20;99.90;;;;;;5089810;28;20599;-81
2021/08/02 09:13:34;;;;;;;8.47;3.13;;;17.30;99.90;;;;;;5085967;28;20228;-82
2021/08/02 09:16:13;;;;;;;6.10;3.10;;;17.30;99.90;;;;;;5087004;28;20177;-82
2021/08/02 09:18:39;;;;;;;8.73;3.33;;;17.30;99.90;;;;;;5090927;28;20334;-81
2021/08/02 09:21:11;;;;;;;8.63;3.73;;;17.40;99.90;;;;;;5073889;28;20720;-82
2021/08/02 09:23:51;;;;;;;10.33;3.80;;;17.50;99.90;;;;;;5086029;28;20179;-82
2021/08/02 09:26:32;;;;;;;7.77;3.40;;;17.70;99.90;;;;;;5079000;28;20193;-82
2021/08/02 09:28:58;;;;;;;10.93;3.70;;;18.00;99.90;;;;;;5076305;28;20556;-82
2021/08/02 09:31:35;;;;;;;7.60;3.33;;;18.20;99.90;;;;;;5087712;28;20190;-82
2021/08/02 09:34:07;;;;;;;10.43;3.83;;;18.40;99.90;;;;;;5089322;28;20195;-82
2021/08/02 09:36:42;;;;;;;8.97;3.37;;;18.70;99.90;;;;;;5076455;28;20293;-82
2021/08/02 09:39:16;;;;;;;6.53;3.63;;;18.90;99.90;;;;;;5089503;28;20194;-82
2021/08/02 09:41:43;;;;;;;7.43;3.20;;;19.20;99.90;;;;;;5083453;28;20182;-82
2021/08/02 09:44:24;;;;;;;10.27;3.40;;;19.40;99.90;;;;;;5076585;28;20185;-83
2021/08/02 09:47:01;;;;;;;11.70;3.80;;;19.60;99.90;;;;;;5101104;28;20185;-83
2021/08/02 09:49:30;;;;;;;8.20;3.43;;;19.90;99.90;;;;;;5088933;28;20325;-84
2021/08/02 09:51:56;;;;;;;8.97;3.20;;;20.20;99.90;;;;;;5078817;28;20567;-83
2021/08/02 09:54:29;;;;;;;6.63;3.00;;;20.30;99.90;;;;;;5075935;28;20201;-84
2021/08/02 09:56:56;;;;;;;12.30;3.00;;;20.50;99.90;;;;;;5093809;28;20178;-84
2021/08/02 09:59:22;;;;;;;7.33;2.90;;;20.60;99.90;;;;;;5089839;28;20687;-84
2021/08/02 10:01:50;;;;;;;6.63;2.50;;;21.00;99.90;;;;;;5066963;28;20201;-84
2021/08/02 10:04:17;;;;;;;8.27;3.80;;;21.00;99.90;;;;;;5078099;28;20522;-84
2021/08/02 10:06:44;;;;;;;7.50;3.37;;;20.90;99.90;;;;;;5085783;28;20187;-84
2021/08/02 10:09:14;;;;;;;7.37;2.97;;;21.00;99.90;;;;;;5094080;28;20191;-84
2021/08/02 10:11:43;;;;;;;8.00;3.10;;;21.20;99.90;;;;;;5087336;28;20185;-84
2021/08/02 10:14:12;;;;;;;7.30;2.80;;;21.40;99.90;;;;;;5077124;28;20202;-84
2021/08/02 10:16:44;;;;;;;7.40;3.00;;;21.40;99.90;;;;;;5077438;28;20204;-85
2021/08/02 10:19:11;;;;;;;8.23;2.80;;;21.30;99.90;;;;;;5093422;28;20691;-85
2021/08/02 10:21:43;;;;;;;7.97;2.70;;;21.40;99.90;;;;;;5076362;28;20191;-83
2021/08/02 10:24:14;;;;;;;6.43;2.60;;;21.40;99.90;;;;;;5107008;28;20180;-83
2021/08/02 10:26:41;;;;;;;7.93;2.63;;;21.60;99.90;;;;;;5075464;28;20232;-82
2021/08/02 10:29:08;;;;;;;9.23;2.90;;;21.80;99.90;;;;;;5090835;28;20185;-83
2021/08/02 10:31:53;;;;;;;7.37;2.40;;;22.10;99.90;;;;;;5075092;28;20184;-83
2021/08/02 10:34:21;;;;;;;7.53;2.70;;;22.30;99.90;;;;;;5088942;28;20271;-85
2021/08/02 10:37:00;;;;;;;9.23;2.80;;;22.50;99.90;;;;;;5091732;28;20174;-84
2021/08/02 10:39:28;;;;;;;7.07;2.70;;;22.50;99.90;;;;;;5072226;28;20189;-85
2021/08/02 10:42:10;;;;;;;7.00;2.80;;;22.50;99.90;;;;;;5091297;28;20173;-84
2021/08/02 10:44:36;;;;;;;8.23;3.07;;;22.50;99.90;;;;;;5075171;28;20188;-84
2021/08/02 10:47:05;;;;;;;6.47;2.50;;;22.90;99.90;;;;;;5073778;28;20227;-84
2021/08/02 10:49:32;;;;;;;7.87;2.50;;;23.30;99.90;;;;;;5083560;28;20180;-84
2021/08/02 10:51:58;;;;;;;6.23;2.50;;;23.40;99.90;;;;;;5077820;28;20181;-84
2021/08/02 10:54:24;;;;;;;8.23;2.40;;;22.80;99.90;;;;;;5077762;28;20263;-84
2021/08/02 10:56:52;;;;;;;8.73;2.90;;;23.40;99.90;;;;;;5073523;28;20181;-83
2021/08/02 10:59:21;;;;;;;8.13;3.53;;;24.10;99.90;;;;;;5078380;28;20182;-83
2021/08/02 11:01:52;;;;;;;7.30;3.33;;;26.20;99.90;;;;;;5104720;28;20178;-83
2021/08/02 11:04:21;;;;;;;11.77;4.70;;;28.80;99.90;;;;;;5102363;28;20246;-83
2021/08/02 11:06:48;;;;;;;8.43;4.57;;;30.60;99.90;;;;;;5119677;27;20198;-83
2021/08/02 11:09:25;;;;;;;10.07;4.32;;;31.40;99.90;;;;;;5113972;28;20206;-83
2021/08/02 11:12:06;;;;;;;8.68;3.58;;;32.40;97.30;;;;;;5095372;28;20722;-83
2021/08/02 11:14:32;;;;;;;6.93;3.60;;;32.90;93.90;;;;;;5095309;28;20580;-84
2021/08/02 11:16:57;;;;;;;6.78;3.20;;;33.90;91.40;;;;;;5083118;28;20208;-84
2021/08/02 11:19:29;;;;;;;8.43;3.38;;;34.60;92.40;;;;;;5092485;28;20206;-84
2021/08/02 11:22:06;;;;;;;7.88;3.00;;;34.30;88.70;;;;;;5075907;28;20183;-85
2021/08/02 11:24:49;;;;;;;8.30;3.45;;;32.10;87.70;;;;;;5073674;28;20286;-83
2021/08/02 11:27:15;;;;;;;8.20;3.30;;;29.70;92.50;;;;;;5093997;28;20190;-83
2021/08/02 11:29:40;;;;;;;9.70;3.65;;;28.60;96.40;;;;;;5090240;28;20187;-83
2021/08/02 11:32:12;;;;;;;8.98;3.60;;;27.60;97.50;;;;;;5072107;28;20182;-83
2021/08/02 11:34:40;;;;;;;9.55;3.60;;;27.00;99.90;;;;;;5079007;28;20268;-83
2021/08/02 11:37:14;;;;;;;6.88;3.00;;;28.20;99.90;;;;;;5087410;28;20222;-83
2021/08/02 11:39:47;;;;;;;10.10;3.38;;;29.90;97.30;;;;;;5108841;27;20290;-83
2021/08/02 11:42:17;;;;;;;7.50;3.30;;;30.20;96.30;;;;;;5071169;28;20588;-84
2021/08/02 11:44:50;;;;;;;9.52;3.50;;;29.80;96.00;;;;;;5095046;28;20179;-83
2021/08/02 11:47:22;;;;;;;7.88;3.03;;;30.10;95.90;;;;;;5069589;28;20184;-83
2021/08/02 11:49:48;;;;;;;8.60;3.25;;;29.70;93.90;;;;;;5086344;28;20286;-84
2021/08/02 11:52:17;;;;;;;6.82;3.38;;;29.70;96.40;;;;;;5084829;28;20215;-84
2021/08/02 11:54:46;;;;;;;8.60;3.20;;;30.60;94.20;;;;;;5090639;28;20207;-84
2021/08/02 11:57:18;;;;;;;7.10;2.80;;;30.70;92.10;;;;;;5089544;28;20175;-83
2021/08/02 12:00:06;;;;;;;7.88;3.85;;;31.50;92.90;;;;;;5086917;28;20279;-84
2021/08/02 12:02:40;;;;;;;6.82;3.10;;;31.80;90.20;;;;;;5086385;28;20284;-84
2021/08/02 12:05:18;;;;;;;10.27;3.53;;;30.80;91.60;;;;;;5074675;28;20191;-84
2021/08/02 12:07:44;;;;;;;7.43;3.38;;;29.70;92.30;;;;;;5090730;28;20277;-84
2021/08/02 12:10:21;;;;;;;9.07;3.30;;;28.60;94.30;;;;;;5071689;28;20203;-84
2021/08/02 12:13:04;;;;;;;8.02;3.33;;;27.80;95.80;;;;;;5091138;28;20182;-83
2021/08/02 12:15:32;;;;;;;6.95;3.17;;;28.10;96.20;;;;;;5075911;28;20176;-82
2021/08/02 12:17:58;;;;;;;6.65;2.90;;;29.50;94.10;;;;;;5089814;28;20706;-83
2021/08/02 12:20:34;;;;;;;7.07;3.03;;;28.30;93.60;;;;;;5092171;28;20564;-82
2021/08/02 12:23:02;;;;;;;7.18;2.85;;;27.80;95.20;;;;;;5110533;27;20268;-84
2021/08/02 12:25:35;;;;;;;6.65;2.90;;;27.70;97.60;;;;;;5081824;28;20171;-83
2021/08/02 12:28:01;;;;;;;7.30;3.00;;;27.60;96.20;;;;;;5079981;28;20176;-83
2021/08/02 12:30:27;;;;;;;7.25;3.00;;;27.60;95.60;;;;;;5096672;28;20270;-83
2021/08/02 12:32:53;;;;;;;4.75;2.50;;;27.40;95.10;;;;;;5080949;28;20181;-83
2021/08/02 12:35:19;;;;;;;7.53;3.40;;;27.20;96.80;;;;;;5087547;28;20214;-83
2021/08/02 12:37:45;;;;;;;9.30;3.22;;;26.20;97.60;;;;;;5105099;28;20592;-82
2021/08/02 12:40:14;;;;;;;8.10;3.00;;;25.90;99.90;;;;;;5074579;28;20187;-82
2021/08/02 12:42:43;;;;;;;7.30;3.22;;;25.90;99.90;;;;;;5077171;28;20646;-83
2021/08/02 12:45:10;;;;;;;9.13;3.50;;;25.30;99.90;;;;;;5073170;28;20180;-81
2021/08/02 12:47:36;;;;;;;6.27;2.70;;;24.80;99.90;;;;;;5069253;28;20275;-83